Time;durP1;ratioP1;P1;durP2;ratioP2;P2;SDS_P1;SDS_P2;PMS_P1;PMS_P2;Temp;Humidity;BMP_temperature;BMP_pressure;BME280_temperature;BME280_humidity;BME280_pressure;Samples;Min_cycle;Max_cycle;Signal;HPM_P1;HPM_P2
2022/02/28 00:01:43;;;;;;;11.53;10.00;;;2.10;99.90;;;;;;5035736;28;20169;-68
2022/02/28 00:04:08;;;;;;;11.87;9.27;;;2.20;99.90;;;;;;5035570;28;20217;-68
2022/02/28 00:06:34;;;;;;;9.50;8.60;;;2.00;99.90;;;;;;5035766;28;20206;-69
2022/02/28 00:08:59;;;;;;;10.23;7.97;;;2.10;99.90;;;;;;5035579;28;20270;-68
2022/02/28 00:11:25;;;;;;;8.50;7.70;;;2.20;99.90;;;;;;5035905;28;20179;-68
2022/02/28 00:13:50;;;;;;;9.60;8.50;;;2.20;99.90;;;;;;5035318;28;20241;-68
2022/02/28 00:16:16;;;;;;;11.00;9.40;;;2.20;99.90;;;;;;5035346;28;20209;-68
2022/02/28 00:18:42;;;;;;;13.03;8.90;;;2.20;99.90;;;;;;5035828;28;20175;-68
2022/02/28 00:21:08;;;;;;;10.73;9.60;;;2.10;99.90;;;;;;5034424;28;20171;-69
2022/02/28 00:23:33;;;;;;;9.93;8.87;;;2.10;99.90;;;;;;5035176;28;20199;-68
2022/02/28 00:26:01;;;;;;;9.77;8.70;;;2.10;99.90;;;;;;5034940;28;20484;-69
2022/02/28 00:28:26;;;;;;;9.50;8.53;;;2.10;99.90;;;;;;5035504;28;20144;-68
2022/02/28 00:30:52;;;;;;;10.67;8.73;;;2.00;99.90;;;;;;5038933;28;20781;-69
2022/02/28 00:33:17;;;;;;;11.20;9.83;;;2.00;99.90;;;;;;5037522;28;20224;-68
2022/02/28 00:35:43;;;;;;;9.67;8.67;;;2.00;99.90;;;;;;5039569;28;20255;-68
2022/02/28 00:38:09;;;;;;;11.23;8.57;;;2.00;99.90;;;;;;5039194;28;20278;-68
2022/02/28 00:40:35;;;;;;;11.63;8.53;;;2.00;99.90;;;;;;5039701;28;20171;-68
2022/02/28 00:43:00;;;;;;;11.73;9.20;;;1.90;99.90;;;;;;5037322;28;20420;-68
2022/02/28 00:45:26;;;;;;;9.73;8.73;;;1.90;99.90;;;;;;5038932;28;20214;-68
2022/02/28 00:47:52;;;;;;;11.57;9.67;;;1.90;99.90;;;;;;5036969;28;20197;-68
2022/02/28 00:50:18;;;;;;;13.37;9.37;;;1.90;99.90;;;;;;5036885;28;20957;-69
2022/02/28 00:52:43;;;;;;;10.43;9.27;;;1.90;99.90;;;;;;5037327;28;20180;-68
2022/02/28 00:55:11;;;;;;;11.87;9.57;;;1.90;99.90;;;;;;5039121;28;20428;-68
2022/02/28 00:57:37;;;;;;;12.47;9.93;;;1.80;99.90;;;;;;5036986;28;20202;-68
2022/02/28 01:00:06;;;;;;;13.03;9.33;;;1.80;99.90;;;;;;5038655;28;20429;-68
2022/02/28 01:02:32;;;;;;;11.93;10.63;;;1.80;99.90;;;;;;5038641;28;20483;-68
2022/02/28 01:04:58;;;;;;;9.30;8.07;;;1.80;99.90;;;;;;5038641;28;20511;-69
2022/02/28 01:07:23;;;;;;;12.90;9.77;;;1.70;99.90;;;;;;5038010;28;20187;-68
2022/02/28 01:09:49;;;;;;;12.70;10.33;;;1.70;99.90;;;;;;5039272;28;20172;-68
2022/02/28 01:12:15;;;;;;;11.17;10.00;;;1.70;99.90;;;;;;5038726;28;20193;-68
2022/02/28 01:14:40;;;;;;;15.43;11.23;;;1.70;99.90;;;;;;5038093;28;20199;-68
2022/02/28 01:17:06;;;;;;;12.00;10.20;;;1.80;99.90;;;;;;5038497;28;20222;-68
2022/02/28 01:19:32;;;;;;;12.40;9.37;;;1.80;99.90;;;;;;5038530;28;20198;-68
2022/02/28 01:21:58;;;;;;;12.53;9.80;;;1.80;99.90;;;;;;5038320;28;20173;-68
2022/02/28 01:24:24;;;;;;;11.90;9.80;;;1.70;99.90;;;;;;5037984;28;20580;-68
2022/02/28 01:26:49;;;;;;;10.27;8.77;;;1.70;99.90;;;;;;5037992;28;20216;-68
2022/02/28 01:29:15;;;;;;;11.57;10.30;;;1.70;99.90;;;;;;5037949;28;20261;-68
2022/02/28 01:31:41;;;;;;;13.73;11.20;;;1.60;99.90;;;;;;5037977;28;20177;-68
2022/02/28 01:34:07;;;;;;;13.30;10.70;;;1.60;99.90;;;;;;5037741;28;20413;-67
2022/02/28 01:36:32;;;;;;;13.23;9.27;;;1.50;99.90;;;;;;5038471;28;20429;-67
2022/02/28 01:39:00;;;;;;;13.13;9.63;;;1.60;99.90;;;;;;5037859;28;20246;-67
2022/02/28 01:41:26;;;;;;;12.30;9.87;;;1.60;99.90;;;;;;5037341;28;20170;-67
2022/02/28 01:43:52;;;;;;;11.80;9.43;;;1.60;99.90;;;;;;5038087;28;20409;-67
2022/02/28 01:46:17;;;;;;;11.77;10.53;;;1.60;99.90;;;;;;5038461;28;20955;-68
2022/02/28 01:48:45;;;;;;;10.83;9.73;;;1.50;99.90;;;;;;5037460;28;20167;-68
2022/02/28 01:51:10;;;;;;;11.27;10.10;;;1.60;99.90;;;;;;5038363;28;20178;-68
2022/02/28 01:53:36;;;;;;;12.30;10.30;;;1.70;99.90;;;;;;5038282;28;20798;-68
2022/02/28 01:56:04;;;;;;;11.90;10.40;;;1.60;99.90;;;;;;5038326;28;20184;-68
2022/02/28 01:58:37;;;;;;;11.63;9.57;;;1.50;99.90;;;;;;5037722;28;20201;-67
2022/02/28 02:01:04;;;;;;;10.03;8.67;;;1.50;99.90;;;;;;5038339;28;20416;-68
2022/02/28 02:03:30;;;;;;;11.57;10.37;;;1.40;99.90;;;;;;5037238;28;20413;-68
2022/02/28 02:05:56;;;;;;;12.40;9.27;;;1.40;99.90;;;;;;5037915;28;20501;-68
2022/02/28 02:08:22;;;;;;;13.03;10.30;;;1.40;99.90;;;;;;5037490;28;20233;-68
2022/02/28 02:10:49;;;;;;;11.43;9.23;;;1.40;99.90;;;;;;5037535;28;20419;-68
2022/02/28 02:13:15;;;;;;;10.97;8.37;;;1.50;99.90;;;;;;5037702;28;20197;-69
2022/02/28 02:15:41;;;;;;;13.73;10.50;;;1.40;99.90;;;;;;5037597;28;20501;-68
2022/02/28 02:18:07;;;;;;;12.93;9.57;;;1.50;99.90;;;;;;5037524;28;20819;-67
2022/02/28 02:20:37;;;;;;;11.13;9.70;;;1.50;99.90;;;;;;5037325;28;20736;-68
2022/02/28 02:23:09;;;;;;;11.57;9.60;;;1.50;99.90;;;;;;5037622;28;20389;-69
2022/02/28 02:25:36;;;;;;;13.20;9.87;;;1.60;99.90;;;;;;5037220;28;20500;-67
2022/02/28 02:28:06;;;;;;;12.70;10.10;;;1.40;99.90;;;;;;5036809;28;20440;-68
2022/02/28 02:30:32;;;;;;;12.57;10.47;;;1.40;99.90;;;;;;5037382;28;20397;-68
2022/02/28 02:32:58;;;;;;;11.50;9.63;;;1.40;99.90;;;;;;5035445;28;20426;-68
2022/02/28 02:35:24;;;;;;;13.13;9.87;;;1.40;99.90;;;;;;5037580;28;20929;-68
2022/02/28 02:37:49;;;;;;;12.80;10.20;;;1.40;99.90;;;;;;5037375;28;20193;-68
2022/02/28 02:40:15;;;;;;;13.57;11.60;;;1.30;99.90;;;;;;5037307;28;20249;-68
2022/02/28 02:42:41;;;;;;;11.53;9.97;;;1.30;99.90;;;;;;5037049;28;20165;-68
2022/02/28 02:45:07;;;;;;;13.37;11.70;;;1.30;99.90;;;;;;5037070;28;20409;-68
2022/02/28 02:47:34;;;;;;;12.50;11.00;;;1.30;99.90;;;;;;5036731;28;20226;-68
2022/02/28 02:49:59;;;;;;;11.40;10.17;;;1.40;99.90;;;;;;5037230;28;20894;-68
2022/02/28 02:52:25;;;;;;;13.23;10.57;;;1.40;99.90;;;;;;5035871;28;20435;-68
2022/02/28 02:54:51;;;;;;;13.07;10.30;;;1.30;99.90;;;;;;5035963;28;20623;-68
2022/02/28 02:57:18;;;;;;;13.43;11.20;;;1.30;99.90;;;;;;5036535;28;20250;-68
2022/02/28 02:59:44;;;;;;;11.13;10.00;;;1.30;99.90;;;;;;5036682;28;20189;-68
2022/02/28 03:02:09;;;;;;;13.40;11.37;;;1.30;99.90;;;;;;5036187;28;20406;-68
2022/02/28 03:04:35;;;;;;;12.43;10.60;;;1.30;99.90;;;;;;5036458;28;20686;-68
2022/02/28 03:07:00;;;;;;;12.77;11.37;;;1.30;99.90;;;;;;5037020;28;20194;-68
2022/02/28 03:09:26;;;;;;;13.13;11.40;;;1.30;99.90;;;;;;5036266;28;20176;-68
2022/02/28 03:11:52;;;;;;;13.10;10.40;;;1.30;99.90;;;;;;5036973;28;20209;-68
2022/02/28 03:14:17;;;;;;;11.57;9.47;;;1.30;99.90;;;;;;5036369;28;20165;-68
2022/02/28 03:16:43;;;;;;;13.73;10.57;;;1.20;99.90;;;;;;5035645;28;20194;-68
2022/02/28 03:19:08;;;;;;;14.33;11.10;;;1.20;99.90;;;;;;5035518;28;20166;-68
2022/02/28 03:21:34;;;;;;;15.17;10.80;;;1.20;99.90;;;;;;5035799;28;20197;-68
2022/02/28 03:23:59;;;;;;;13.10;10.50;;;1.20;99.90;;;;;;5036597;28;20745;-68
2022/02/28 03:26:25;;;;;;;13.27;10.27;;;1.20;99.90;;;;;;5035883;28;20590;-68
2022/02/28 03:28:51;;;;;;;12.57;10.23;;;1.10;99.90;;;;;;5035951;28;20170;-68
2022/02/28 03:31:16;;;;;;;15.43;11.10;;;1.10;99.90;;;;;;5036568;28;20634;-68
2022/02/28 03:33:42;;;;;;;13.80;10.63;;;1.10;99.90;;;;;;5034933;28;20249;-68
2022/02/28 03:36:07;;;;;;;13.03;11.03;;;1.10;99.90;;;;;;5035684;28;20272;-67
2022/02/28 03:38:33;;;;;;;14.13;11.00;;;1.10;99.90;;;;;;5036037;28;20191;-67
2022/02/28 03:40:59;;;;;;;11.83;9.80;;;1.10;99.90;;;;;;5036280;28;20174;-68
2022/02/28 03:43:24;;;;;;;19.10;12.30;;;1.10;99.90;;;;;;5035521;28;20208;-68
2022/02/28 03:45:50;;;;;;;16.63;12.50;;;1.10;99.90;;;;;;5035768;28;20281;-68
2022/02/28 03:48:17;;;;;;;12.37;10.87;;;1.00;99.90;;;;;;5036319;28;20247;-67
2022/02/28 03:50:42;;;;;;;13.57;10.70;;;1.10;99.90;;;;;;5036776;28;20308;-67
2022/02/28 03:53:08;;;;;;;14.83;10.57;;;1.00;99.90;;;;;;5035918;28;20463;-68
2022/02/28 03:55:34;;;;;;;13.00;11.37;;;1.20;99.90;;;;;;5036184;28;20575;-68
2022/02/28 03:58:00;;;;;;;13.80;10.97;;;1.20;99.90;;;;;;5034268;28;21270;-68
2022/02/28 04:00:25;;;;;;;14.60;11.30;;;1.10;99.90;;;;;;5036221;28;20216;-68
2022/02/28 04:02:51;;;;;;;13.87;11.20;;;1.10;99.90;;;;;;5036346;28;20174;-68
2022/02/28 04:05:17;;;;;;;12.90;10.60;;;1.10;99.90;;;;;;5038909;28;20168;-68
2022/02/28 04:07:43;;;;;;;13.57;11.30;;;1.00;99.90;;;;;;5040046;28;20214;-68
2022/02/28 04:10:09;;;;;;;14.00;10.30;;;1.00;99.90;;;;;;5038917;28;20209;-69
2022/02/28 04:12:36;;;;;;;16.23;11.90;;;0.90;99.90;;;;;;5039344;28;20404;-68
2022/02/28 04:15:02;;;;;;;11.20;9.50;;;0.90;99.90;;;;;;5039202;28;20546;-68
2022/02/28 04:17:27;;;;;;;16.00;11.80;;;0.90;99.90;;;;;;5039155;28;20986;-69
2022/02/28 04:19:53;;;;;;;12.43;11.07;;;0.80;99.90;;;;;;5039055;28;20413;-69
2022/02/28 04:22:19;;;;;;;15.50;11.40;;;0.90;99.90;;;;;;5039093;28;20177;-69
2022/02/28 04:24:45;;;;;;;12.50;10.70;;;1.00;99.90;;;;;;5039788;28;20258;-69
2022/02/28 04:27:11;;;;;;;14.30;12.00;;;1.00;99.90;;;;;;5071398;22;20248;-67
2022/02/28 04:29:37;;;;;;;13.03;11.50;;;1.00;99.90;;;;;;5015699;28;20509;-66
2022/02/28 04:32:04;;;;;;;15.90;11.00;;;1.00;99.90;;;;;;5016780;28;20407;-67
2022/02/28 04:34:30;;;;;;;11.90;10.53;;;1.00;99.90;;;;;;5016707;28;20242;-66
2022/02/28 04:36:55;;;;;;;12.13;10.37;;;0.90;99.90;;;;;;5015432;28;20536;-67
2022/02/28 04:39:21;;;;;;;14.67;11.80;;;0.90;99.90;;;;;;5016466;28;20235;-66
2022/02/28 04:41:47;;;;;;;12.60;10.30;;;1.00;99.90;;;;;;5016498;28;20543;-66
2022/02/28 04:44:12;;;;;;;13.63;11.23;;;0.90;99.90;;;;;;5016452;28;20241;-66
2022/02/28 04:46:38;;;;;;;13.83;11.50;;;0.90;99.90;;;;;;5016489;28;20175;-66
2022/02/28 04:49:03;;;;;;;13.23;10.50;;;0.90;99.90;;;;;;5015006;28;20195;-65
2022/02/28 04:51:29;;;;;;;13.93;10.97;;;0.90;99.90;;;;;;5016341;28;20173;-68
2022/02/28 04:53:55;;;;;;;13.00;10.53;;;0.80;99.90;;;;;;5015247;28;20168;-67
2022/02/28 04:56:20;;;;;;;13.40;10.30;;;0.80;99.90;;;;;;5016149;28;20176;-68
2022/02/28 04:58:46;;;;;;;18.10;11.60;;;0.90;99.90;;;;;;5015857;28;20240;-68
2022/02/28 05:01:12;;;;;;;15.30;11.20;;;0.90;99.90;;;;;;5016165;28;20163;-68
2022/02/28 05:03:38;;;;;;;12.80;10.00;;;0.90;99.90;;;;;;5015906;28;20169;-68
2022/02/28 05:06:04;;;;;;;13.40;11.23;;;0.90;99.90;;;;;;5016368;28;20401;-68
2022/02/28 05:08:29;;;;;;;14.97;10.80;;;1.00;99.90;;;;;;5016369;28;20191;-68
2022/02/28 05:10:55;;;;;;;15.10;11.80;;;1.00;99.90;;;;;;5016068;28;20176;-68
2022/02/28 05:13:21;;;;;;;13.60;12.00;;;1.00;99.90;;;;;;5015683;28;20244;-68
2022/02/28 05:15:46;;;;;;;16.47;12.43;;;0.90;99.90;;;;;;5016594;28;20737;-68
2022/02/28 05:18:12;;;;;;;14.60;12.10;;;0.80;99.90;;;;;;5033673;28;20296;-68
2022/02/28 05:20:37;;;;;;;16.40;13.07;;;0.70;99.90;;;;;;5034233;28;20682;-68
2022/02/28 05:23:03;;;;;;;15.70;12.07;;;0.70;99.90;;;;;;5034218;28;20174;-68
2022/02/28 05:25:28;;;;;;;14.13;12.13;;;0.70;99.90;;;;;;5035935;28;20246;-68
2022/02/28 05:27:54;;;;;;;13.30;11.93;;;0.70;99.90;;;;;;5034147;28;20559;-68
2022/02/28 05:30:20;;;;;;;14.87;11.77;;;0.70;99.90;;;;;;5016784;28;20179;-68
2022/02/28 05:32:45;;;;;;;20.33;13.77;;;0.70;99.90;;;;;;5015671;28;20660;-68
2022/02/28 05:35:12;;;;;;;17.07;13.83;;;0.60;99.90;;;;;;5014747;28;20174;-68
2022/02/28 05:37:39;;;;;;;20.20;15.43;;;0.60;99.90;;;;;;5015317;28;20226;-68
2022/02/28 05:40:07;;;;;;;15.27;13.10;;;0.50;99.90;;;;;;5014401;28;20503;-65
2022/02/28 05:42:33;;;;;;;16.40;12.03;;;0.60;99.90;;;;;;5015214;28;20775;-65
2022/02/28 05:44:59;;;;;;;19.03;13.37;;;0.60;99.90;;;;;;5015432;28;20402;-65
2022/02/28 05:47:25;;;;;;;15.43;12.63;;;0.60;99.90;;;;;;5015047;28;20440;-67
2022/02/28 05:49:50;;;;;;;18.57;12.17;;;0.60;99.90;;;;;;5015224;28;20543;-67
2022/02/28 05:52:16;;;;;;;16.20;12.87;;;0.60;99.90;;;;;;5015125;28;20171;-66
2022/02/28 05:54:42;;;;;;;15.17;12.70;;;0.50;99.90;;;;;;5015058;28;20280;-66
2022/02/28 05:57:08;;;;;;;17.87;12.07;;;0.60;99.90;;;;;;5014834;28;20464;-66
2022/02/28 05:59:33;;;;;;;17.13;13.10;;;0.60;99.90;;;;;;5014118;28;20535;-66
2022/02/28 06:01:59;;;;;;;14.73;12.07;;;0.50;99.90;;;;;;5015185;28;20300;-66
2022/02/28 06:04:25;;;;;;;17.77;11.30;;;0.50;99.90;;;;;;5015018;28;20194;-66
2022/02/28 06:06:51;;;;;;;18.10;12.70;;;0.50;99.90;;;;;;5013531;28;20178;-66
2022/02/28 06:09:17;;;;;;;17.33;11.80;;;0.50;99.90;;;;;;5014823;28;20425;-66
2022/02/28 06:11:43;;;;;;;18.47;12.10;;;0.60;99.90;;;;;;5014864;28;20443;-66
2022/02/28 06:14:09;;;;;;;15.27;12.93;;;0.60;99.90;;;;;;5013402;28;20412;-67
2022/02/28 06:16:34;;;;;;;16.00;11.77;;;0.50;99.90;;;;;;5014745;28;20924;-67
2022/02/28 06:19:00;;;;;;;14.37;12.87;;;0.60;99.90;;;;;;5016427;28;20697;-66
2022/02/28 06:21:25;;;;;;;15.60;11.57;;;0.50;99.90;;;;;;5022076;28;20200;-66
2022/02/28 06:23:51;;;;;;;17.17;13.67;;;0.50;99.90;;;;;;5014474;28;20246;-66
2022/02/28 06:26:16;;;;;;;14.93;11.90;;;0.60;99.90;;;;;;5014267;28;20628;-66
2022/02/28 06:28:42;;;;;;;15.33;12.10;;;0.60;99.90;;;;;;5018452;28;20215;-65
2022/02/28 06:31:08;;;;;;;19.50;13.63;;;0.70;99.90;;;;;;5032528;28;20177;-66
2022/02/28 06:33:34;;;;;;;18.47;12.67;;;0.70;99.90;;;;;;5029361;28;20552;-68
2022/02/28 06:36:00;;;;;;;14.33;12.00;;;0.70;99.90;;;;;;5014585;28;20214;-67
2022/02/28 06:38:26;;;;;;;21.27;13.70;;;0.80;99.90;;;;;;5013990;28;20224;-67
2022/02/28 06:40:52;;;;;;;14.77;12.57;;;0.80;99.90;;;;;;5014346;28;20406;-67
2022/02/28 06:43:20;;;;;;;17.57;15.30;;;0.90;99.90;;;;;;5014015;28;20451;-67
2022/02/28 06:45:48;;;;;;;17.20;13.77;;;0.90;99.90;;;;;;5014519;28;20767;-66
2022/02/28 06:48:14;;;;;;;13.80;11.63;;;0.90;99.90;;;;;;5014401;28;20434;-67
2022/02/28 06:50:39;;;;;;;15.87;12.73;;;0.90;99.90;;;;;;5014145;28;20444;-67
2022/02/28 06:53:05;;;;;;;15.37;11.47;;;0.90;99.90;;;;;;5014925;28;20436;-67
2022/02/28 06:55:31;;;;;;;14.50;12.83;;;0.90;99.90;;;;;;5019988;28;20187;-67
2022/02/28 06:57:57;;;;;;;18.33;13.30;;;0.90;99.90;;;;;;5013707;28;20265;-67
2022/02/28 07:00:22;;;;;;;17.70;14.03;;;0.90;99.90;;;;;;5012576;28;20242;-67
2022/02/28 07:02:48;;;;;;;16.27;13.33;;;0.90;99.90;;;;;;5013960;28;20249;-67
2022/02/28 07:05:14;;;;;;;19.33;15.47;;;0.80;99.90;;;;;;5013833;28;20178;-65
2022/02/28 07:07:39;;;;;;;16.77;12.80;;;0.90;99.90;;;;;;5013318;28;20587;-67
2022/02/28 07:10:06;;;;;;;18.63;13.10;;;1.00;99.90;;;;;;5014168;28;20179;-67
2022/02/28 07:12:31;;;;;;;16.03;13.20;;;1.00;99.90;;;;;;5014186;28;20437;-67
2022/02/28 07:14:57;;;;;;;15.97;13.40;;;1.00;99.90;;;;;;5013491;28;20459;-67
2022/02/28 07:17:25;;;;;;;17.37;13.00;;;1.10;99.90;;;;;;5013795;28;20237;-67
2022/02/28 07:19:51;;;;;;;20.93;15.30;;;1.10;99.90;;;;;;5012124;28;20407;-67
2022/02/28 07:22:17;;;;;;;17.07;13.40;;;1.20;99.90;;;;;;5013318;28;20414;-68
2022/02/28 07:24:42;;;;;;;17.10;13.30;;;1.30;99.90;;;;;;5013492;28;20175;-67
2022/02/28 07:27:08;;;;;;;16.17;12.63;;;1.50;99.90;;;;;;5028081;28;20282;-67
2022/02/28 07:29:33;;;;;;;18.17;12.90;;;1.60;99.90;;;;;;5033034;28;20328;-68
2022/02/28 07:31:59;;;;;;;17.83;15.00;;;1.70;99.90;;;;;;5024863;28;20176;-67
2022/02/28 07:34:25;;;;;;;17.37;14.00;;;1.80;99.90;;;;;;5014291;28;20230;-67
2022/02/28 07:36:50;;;;;;;16.07;14.20;;;1.80;99.90;;;;;;5019725;28;20201;-67
2022/02/28 07:39:17;;;;;;;17.43;14.33;;;1.90;99.90;;;;;;5032524;28;20171;-67
2022/02/28 07:41:43;;;;;;;16.87;13.67;;;2.00;99.90;;;;;;5033189;28;20254;-67
2022/02/28 07:44:09;;;;;;;20.00;14.60;;;2.10;99.90;;;;;;5028628;28;20430;-68
2022/02/28 07:46:35;;;;;;;19.93;14.47;;;2.20;99.90;;;;;;5013010;28;20411;-67
2022/02/28 07:49:01;;;;;;;17.50;13.70;;;2.20;99.90;;;;;;5013062;28;20535;-68
2022/02/28 07:51:26;;;;;;;18.20;14.10;;;2.30;99.90;;;;;;5011406;28;20450;-68
2022/02/28 07:53:52;;;;;;;16.17;14.13;;;2.40;99.90;;;;;;5012542;28;20168;-67
2022/02/28 07:56:18;;;;;;;16.23;13.17;;;2.50;99.90;;;;;;5013210;28;20168;-67
2022/02/28 07:58:44;;;;;;;17.90;13.93;;;2.60;99.90;;;;;;5012868;28;20679;-67
2022/02/28 08:01:10;;;;;;;19.43;15.43;;;2.80;99.90;;;;;;5012769;28;20399;-68
2022/02/28 08:03:36;;;;;;;18.20;13.50;;;3.00;99.90;;;;;;5013018;28;20409;-67
2022/02/28 08:06:01;;;;;;;16.70;14.47;;;3.10;99.90;;;;;;5012812;28;20171;-67
2022/02/28 08:08:27;;;;;;;19.80;14.53;;;3.10;99.90;;;;;;5012756;28;20195;-67
2022/02/28 08:10:52;;;;;;;20.13;14.80;;;3.20;99.90;;;;;;5012716;28;20211;-67
2022/02/28 08:13:18;;;;;;;18.90;14.57;;;3.30;99.90;;;;;;5019760;28;20190;-68
2022/02/28 08:15:44;;;;;;;16.40;14.10;;;3.50;99.90;;;;;;5032423;28;20246;-68
2022/02/28 08:18:10;;;;;;;19.87;14.60;;;3.60;99.90;;;;;;5032376;28;20690;-68
2022/02/28 08:20:36;;;;;;;17.63;14.43;;;3.70;99.90;;;;;;5028848;28;20419;-68
2022/02/28 08:23:04;;;;;;;19.30;14.17;;;3.60;99.90;;;;;;5012701;28;20687;-67
2022/02/28 08:25:30;;;;;;;21.17;15.37;;;3.70;99.90;;;;;;5012863;28;20168;-67
2022/02/28 08:27:55;;;;;;;16.60;14.17;;;3.80;99.90;;;;;;5012440;28;20443;-67
2022/02/28 08:30:21;;;;;;;19.60;14.63;;;3.90;99.90;;;;;;5012533;28;20635;-67
2022/02/28 08:32:47;;;;;;;21.73;16.40;;;3.80;99.90;;;;;;5012140;28;20172;-67
2022/02/28 08:35:13;;;;;;;20.57;16.13;;;3.80;99.90;;;;;;5010814;28;20418;-68
2022/02/28 08:37:39;;;;;;;19.07;16.03;;;3.90;99.90;;;;;;5012813;28;20208;-67
2022/02/28 08:40:06;;;;;;;21.47;17.03;;;3.90;99.90;;;;;;5012521;28;20208;-67
2022/02/28 08:42:32;;;;;;;20.37;16.30;;;4.10;99.90;;;;;;5009999;28;20913;-65
2022/02/28 08:45:00;;;;;;;20.80;15.80;;;4.20;99.90;;;;;;5011467;28;20402;-67
2022/02/28 08:47:26;;;;;;;19.70;16.47;;;4.30;99.90;;;;;;5012651;28;20465;-67
2022/02/28 08:49:51;;;;;;;20.70;15.77;;;4.00;99.90;;;;;;5011940;28;20878;-66
2022/02/28 08:52:17;;;;;;;20.27;16.00;;;3.90;99.90;;;;;;5014920;28;20505;-67
2022/02/28 08:54:43;;;;;;;19.97;16.03;;;4.00;99.90;;;;;;5014823;28;20172;-67
2022/02/28 08:57:08;;;;;;;23.50;16.30;;;4.10;99.90;;;;;;5015904;28;20199;-67
2022/02/28 08:59:34;;;;;;;18.00;16.07;;;4.20;99.90;;;;;;5015699;28;20179;-67
2022/02/28 09:02:01;;;;;;;21.40;14.97;;;4.20;99.90;;;;;;5015936;28;20222;-67
2022/02/28 09:04:26;;;;;;;21.00;14.70;;;4.30;99.90;;;;;;5015747;28;20172;-67
2022/02/28 09:06:53;;;;;;;22.33;15.53;;;4.40;99.90;;;;;;4998143;28;20419;-67
2022/02/28 09:09:19;;;;;;;20.53;14.67;;;4.60;99.90;;;;;;5016040;28;20175;-66
2022/02/28 09:11:45;;;;;;;19.40;13.73;;;4.80;99.90;;;;;;5014743;28;20407;-66
2022/02/28 09:14:11;;;;;;;19.80;14.23;;;5.00;99.90;;;;;;5016253;28;20411;-66
2022/02/28 09:16:37;;;;;;;21.37;14.63;;;5.30;99.90;;;;;;5015797;28;20765;-66
2022/02/28 09:19:02;;;;;;;23.97;16.53;;;5.40;99.90;;;;;;5015299;28;20215;-66
2022/02/28 09:21:28;;;;;;;20.53;15.70;;;5.20;99.90;;;;;;5015943;28;20438;-67
2022/02/28 09:23:54;;;;;;;17.47;14.13;;;5.20;99.90;;;;;;5015612;28;20260;-66
2022/02/28 09:26:21;;;;;;;23.60;14.80;;;5.20;99.90;;;;;;5015522;28;20164;-67
2022/02/28 09:28:47;;;;;;;19.53;16.03;;;5.20;99.90;;;;;;5014807;28;20533;-67
2022/02/28 09:31:13;;;;;;;18.00;13.90;;;5.40;99.90;;;;;;5015203;28;20399;-67
2022/02/28 09:33:39;;;;;;;22.43;15.63;;;5.70;99.90;;;;;;5014919;28;20400;-67
2022/02/28 09:36:07;;;;;;;22.80;15.90;;;5.70;99.90;;;;;;5014825;28;20629;-67
2022/02/28 09:38:35;;;;;;;20.07;15.83;;;5.80;99.90;;;;;;5017764;28;20626;-66
2022/02/28 09:41:02;;;;;;;22.13;15.73;;;5.80;99.90;;;;;;5035218;28;20405;-66
2022/02/28 09:43:28;;;;;;;18.70;14.00;;;5.90;99.90;;;;;;5035276;28;20398;-67
2022/02/28 09:45:54;;;;;;;17.50;13.10;;;5.80;99.90;;;;;;5035009;28;20398;-67
2022/02/28 09:48:20;;;;;;;14.23;11.93;;;5.80;99.30;;;;;;5034681;28;20414;-67
2022/02/28 09:50:45;;;;;;;13.83;10.77;;;5.80;98.70;;;;;;5016880;28;20420;-67
2022/02/28 09:53:11;;;;;;;13.93;11.10;;;5.80;98.30;;;;;;5034644;28;20172;-67
2022/02/28 09:55:37;;;;;;;15.37;12.43;;;6.00;98.40;;;;;;5033793;28;20167;-67
2022/02/28 09:58:03;;;;;;;11.73;10.57;;;6.10;98.30;;;;;;5034745;28;20700;-67
2022/02/28 10:00:30;;;;;;;14.40;10.63;;;6.30;97.40;;;;;;5034704;28;20656;-67
2022/02/28 10:02:56;;;;;;;11.10;10.00;;;6.20;96.80;;;;;;5033248;28;20405;-67
2022/02/28 10:05:23;;;;;;;14.60;11.20;;;6.20;96.50;;;;;;5020033;28;20411;-67
2022/02/28 10:08:06;;;;;;;11.77;10.03;;;6.40;96.60;;;;;;5014959;28;20814;-67
2022/02/28 10:10:32;;;;;;;12.60;11.33;;;6.60;96.50;;;;;;5014697;28;20403;-67
2022/02/28 10:12:58;;;;;;;12.83;11.50;;;6.70;95.80;;;;;;5014325;28;20406;-66
2022/02/28 10:15:25;;;;;;;12.80;11.03;;;6.70;96.00;;;;;;5014738;28;20407;-67
2022/02/28 10:17:55;;;;;;;14.90;11.40;;;6.90;95.70;;;;;;5014421;28;20260;-67
2022/02/28 10:20:24;;;;;;;13.77;10.90;;;6.90;95.00;;;;;;5012735;28;20411;-67
2022/02/28 10:22:54;;;;;;;17.00;11.33;;;6.90;94.60;;;;;;5015297;28;20453;-68
2022/02/28 10:25:27;;;;;;;12.50;10.40;;;7.00;95.10;;;;;;5026262;28;20416;-67
2022/02/28 10:28:15;;;;;;;12.43;11.13;;;7.10;94.30;;;;;;5047798;22;20498;-67
2022/02/28 10:30:49;;;;;;;11.70;10.50;;;7.10;93.80;;;;;;5053317;28;20390;-67
2022/02/28 10:33:15;;;;;;;13.30;11.03;;;7.20;94.00;;;;;;5054124;28;20940;-67
2022/02/28 10:36:01;;;;;;;12.67;10.90;;;7.30;93.60;;;;;;5052192;28;20460;-67
2022/02/28 10:38:31;;;;;;;13.63;12.30;;;7.40;93.30;;;;;;5053975;28;20195;-67
2022/02/28 10:40:58;;;;;;;14.30;11.10;;;7.40;93.50;;;;;;5054254;28;20915;-67
2022/02/28 10:43:35;;;;;;;13.97;12.20;;;7.40;93.30;;;;;;5053888;28;20402;-67
2022/02/28 10:46:17;;;;;;;13.50;11.50;;;7.60;93.70;;;;;;5054679;28;20849;-67
2022/02/28 10:48:59;;;;;;;13.13;11.33;;;7.90;93.20;;;;;;5050923;28;20441;-68
2022/02/28 10:51:26;;;;;;;13.27;10.90;;;7.90;92.40;;;;;;5053491;28;20395;-67
2022/02/28 10:54:20;;;;;;;15.80;11.87;;;7.90;92.70;;;;;;5047618;28;20419;-68
2022/02/28 10:56:47;;;;;;;15.90;12.17;;;8.20;92.70;;;;;;5053657;28;20450;-67
2022/02/28 10:59:13;;;;;;;13.47;12.00;;;8.20;91.80;;;;;;5053574;28;20554;-67
2022/02/28 11:01:39;;;;;;;16.47;10.80;;;7.80;92.10;;;;;;5053824;28;20823;-67
2022/02/28 11:04:09;;;;;;;17.40;13.00;;;7.90;92.70;;;;;;5052600;28;20219;-67
2022/02/28 11:06:36;;;;;;;15.23;12.13;;;8.10;92.30;;;;;;5053789;28;20503;-67
2022/02/28 11:09:03;;;;;;;14.03;12.30;;;8.30;92.50;;;;;;5053539;28;20936;-67
2022/02/28 11:11:29;;;;;;;13.10;11.47;;;8.50;92.20;;;;;;5053767;28;20834;-68
2022/02/28 11:13:56;;;;;;;12.27;10.97;;;8.50;92.40;;;;;;5035500;28;20424;-66
2022/02/28 11:16:21;;;;;;;16.87;13.87;;;8.60;91.70;;;;;;5033544;28;20420;-69
2022/02/28 11:18:50;;;;;;;23.10;17.40;;;8.70;92.10;;;;;;5033292;28;20464;-69
2022/02/28 11:21:16;;;;;;;13.40;11.87;;;9.00;91.80;;;;;;5033636;28;20250;-68
2022/02/28 11:23:46;;;;;;;14.43;12.57;;;9.80;88.50;;;;;;5033470;28;20862;-68
2022/02/28 11:26:14;;;;;;;12.60;11.10;;;10.40;84.20;;;;;;5033907;28;20155;-66
2022/02/28 11:28:40;;;;;;;13.27;11.60;;;11.90;79.60;;;;;;5033357;28;20467;-68
2022/02/28 11:31:16;;;;;;;13.43;11.67;;;13.10;75.50;;;;;;5030063;28;20470;-68
2022/02/28 11:34:05;;;;;;;14.53;11.90;;;14.70;68.70;;;;;;5032897;28;20423;-68
2022/02/28 11:36:50;;;;;;;15.67;12.67;;;15.30;64.40;;;;;;5051024;28;20460;-68
2022/02/28 11:39:16;;;;;;;13.80;11.13;;;14.60;61.10;;;;;;5051397;28;20535;-68
2022/02/28 11:41:41;;;;;;;13.43;11.93;;;14.20;61.30;;;;;;5052863;28;20436;-68
2022/02/28 11:44:08;;;;;;;11.90;10.80;;;14.80;61.50;;;;;;5052581;28;20178;-68
2022/02/28 11:46:39;;;;;;;11.90;10.70;;;14.90;59.60;;;;;;5053371;28;20552;-68
2022/02/28 11:49:08;;;;;;;12.97;11.63;;;14.70;59.40;;;;;;5053125;28;20432;-69
2022/02/28 11:51:38;;;;;;;12.63;10.23;;;14.60;58.90;;;;;;5052808;28;20478;-68
2022/02/28 11:54:15;;;;;;;13.87;11.33;;;15.10;56.30;;;;;;5053174;28;20394;-67
2022/02/28 11:56:41;;;;;;;11.77;10.53;;;14.90;57.10;;;;;;5053215;28;20401;-67
2022/02/28 11:59:12;;;;;;;12.23;10.93;;;15.50;55.80;;;;;;5051531;28;20448;-68
2022/02/28 12:02:02;;;;;;;12.20;10.90;;;15.60;55.20;;;;;;5051819;28;20181;-69
2022/02/28 12:04:42;;;;;;;11.40;9.80;;;15.40;52.50;;;;;;5023243;28;20489;-67
2022/02/28 12:07:29;;;;;;;11.53;10.33;;;15.60;52.30;;;;;;5051944;28;20387;-66
2022/02/28 12:10:14;;;;;;;12.50;9.17;;;15.30;55.70;;;;;;5052200;28;20495;-68
2022/02/28 12:12:56;;;;;;;12.07;10.80;;;17.00;51.00;;;;;;5053050;28;20405;-68
2022/02/28 12:15:22;;;;;;;11.70;9.77;;;17.00;50.20;;;;;;5052211;28;20389;-69
2022/02/28 12:17:47;;;;;;;13.37;10.20;;;16.70;49.90;;;;;;5051513;28;20530;-67
2022/02/28 12:20:23;;;;;;;10.93;9.83;;;17.90;48.90;;;;;;5051337;28;20495;-67
2022/02/28 12:22:55;;;;;;;13.80;10.47;;;17.90;48.00;;;;;;5052124;28;20228;-68
2022/02/28 12:25:53;;;;;;;11.70;9.90;;;18.80;48.90;;;;;;5053904;28;20747;-67
2022/02/28 12:28:34;;;;;;;11.37;10.27;;;19.70;45.90;;;;;;5056434;28;20447;-68
2022/02/28 12:31:05;;;;;;;11.40;10.20;;;19.90;44.40;;;;;;5056136;28;20437;-68
2022/02/28 12:33:33;;;;;;;11.60;10.40;;;19.20;45.20;;;;;;5056463;28;20416;-68
2022/02/28 12:36:08;;;;;;;13.10;11.53;;;17.80;44.00;;;;;;5053957;28;20463;-68
2022/02/28 12:38:45;;;;;;;11.80;10.60;;;17.30;45.40;;;;;;5056314;28;20475;-68